Time;durP1;ratioP1;P1;durP2;ratioP2;P2;SDS_P1;SDS_P2;PMS_P1;PMS_P2;Temp;Humidity;BMP_temperature;BMP_pressure;BME280_temperature;BME280_humidity;BME280_pressure;Samples;Min_cycle;Max_cycle;Signal;HPM_P1;HPM_P2
2022/04/14 00:00:41;;;;;;;1.70;1.53;;;11.80;98.00;;;;;;6307941;22;20419;-69
2022/04/14 00:03:08;;;;;;;1.77;1.30;;;11.90;98.00;;;;;;6307692;22;20416;-69
2022/04/14 00:05:35;;;;;;;1.43;1.20;;;12.00;98.00;;;;;;6307910;22;20407;-70
2022/04/14 00:08:02;;;;;;;1.70;1.60;;;12.20;98.00;;;;;;6307526;22;20416;-70
2022/04/14 00:10:29;;;;;;;1.70;1.40;;;12.40;98.00;;;;;;6307941;22;20413;-69
2022/04/14 00:12:55;;;;;;;1.90;1.30;;;12.50;98.00;;;;;;6307491;22;20976;-69
2022/04/14 00:15:23;;;;;;;2.13;1.70;;;12.50;98.00;;;;;;6307913;22;20471;-69
2022/04/14 00:17:51;;;;;;;1.47;1.30;;;12.40;98.00;;;;;;6307283;22;20475;-70
2022/04/14 00:20:18;;;;;;;2.33;2.10;;;12.20;98.00;;;;;;6307714;22;20418;-69
2022/04/14 00:22:45;;;;;;;2.00;1.40;;;12.10;98.00;;;;;;6307220;22;20444;-70
2022/04/14 00:25:12;;;;;;;1.40;1.33;;;11.90;98.00;;;;;;6306712;22;20422;-69
2022/04/14 00:27:39;;;;;;;2.03;1.50;;;11.80;98.00;;;;;;6307076;22;20412;-70
2022/04/14 00:30:07;;;;;;;2.03;1.50;;;11.70;98.00;;;;;;6307162;22;20427;-69
2022/04/14 00:32:34;;;;;;;1.30;1.20;;;11.60;98.00;;;;;;6308053;22;20397;-69
2022/04/14 00:35:03;;;;;;;2.40;1.97;;;11.50;98.00;;;;;;6308176;22;20397;-69
2022/04/14 00:37:31;;;;;;;1.77;1.40;;;11.40;98.00;;;;;;6307777;22;20415;-69
2022/04/14 00:39:58;;;;;;;2.00;1.50;;;11.30;98.00;;;;;;6307959;22;20485;-70
2022/04/14 00:42:25;;;;;;;1.50;1.20;;;11.30;98.00;;;;;;6280439;22;20468;-69
2022/04/14 00:44:52;;;;;;;1.80;1.50;;;11.40;98.00;;;;;;6307456;22;20808;-69
2022/04/14 00:47:21;;;;;;;1.20;1.00;;;11.30;98.00;;;;;;6307276;22;20409;-70
2022/04/14 00:49:49;;;;;;;1.20;1.10;;;11.10;98.00;;;;;;6307244;22;20444;-69
2022/04/14 00:52:17;;;;;;;1.80;1.20;;;11.00;98.00;;;;;;6307179;22;20734;-70
2022/04/14 00:54:44;;;;;;;1.40;1.20;;;11.00;98.00;;;;;;6307645;22;20792;-69
2022/04/14 00:57:11;;;;;;;1.70;1.40;;;11.10;98.00;;;;;;6307561;22;20817;-70
2022/04/14 00:59:38;;;;;;;2.00;1.50;;;11.10;98.00;;;;;;6307736;22;20419;-69
2022/04/14 01:02:07;;;;;;;1.33;1.20;;;11.20;98.00;;;;;;6307077;22;20421;-70
2022/04/14 01:04:35;;;;;;;1.40;1.20;;;11.10;98.00;;;;;;6306949;22;20447;-69
2022/04/14 01:07:03;;;;;;;2.20;1.47;;;11.10;98.00;;;;;;6307289;22;20400;-70
2022/04/14 01:09:31;;;;;;;1.70;1.33;;;11.20;98.00;;;;;;6307524;22;20502;-69
2022/04/14 01:11:58;;;;;;;1.90;1.73;;;11.30;98.00;;;;;;6307549;22;20413;-69
2022/04/14 01:14:27;;;;;;;1.30;1.20;;;11.30;98.00;;;;;;6307491;22;20412;-69
2022/04/14 01:16:55;;;;;;;1.57;1.30;;;11.30;98.00;;;;;;6279664;22;20503;-69
2022/04/14 01:19:22;;;;;;;1.77;1.40;;;11.30;98.00;;;;;;6307334;22;20907;-69
2022/04/14 01:21:57;;;;;;;1.30;1.20;;;11.40;98.00;;;;;;6307149;22;20417;-69
2022/04/14 01:24:25;;;;;;;1.83;1.37;;;11.30;98.00;;;;;;6280390;22;20404;-69
2022/04/14 01:26:53;;;;;;;1.40;1.10;;;11.10;98.00;;;;;;6307692;22;20413;-69
2022/04/14 01:29:22;;;;;;;2.13;1.50;;;11.30;98.00;;;;;;6280127;22;20478;-69
2022/04/14 01:31:49;;;;;;;1.97;1.70;;;11.10;98.00;;;;;;6307382;22;20415;-70
2022/04/14 01:34:16;;;;;;;2.53;2.03;;;10.80;98.00;;;;;;6307138;22;20402;-69
2022/04/14 01:36:43;;;;;;;2.20;1.40;;;10.60;98.00;;;;;;6307370;22;20396;-69
2022/04/14 01:39:11;;;;;;;1.87;1.77;;;10.60;98.00;;;;;;6306519;22;20454;-70
2022/04/14 01:41:43;;;;;;;3.73;1.67;;;10.60;98.00;;;;;;6307073;22;20415;-69
2022/04/14 01:44:11;;;;;;;1.40;1.20;;;10.60;98.00;;;;;;6306370;22;20420;-69
2022/04/14 01:46:39;;;;;;;1.23;1.20;;;10.50;98.00;;;;;;6306942;22;20419;-69
2022/04/14 01:49:06;;;;;;;1.47;1.20;;;10.50;98.00;;;;;;6306607;22;20429;-69
2022/04/14 01:51:33;;;;;;;1.30;1.13;;;10.60;98.00;;;;;;6306475;22;20854;-69
2022/04/14 01:54:00;;;;;;;2.57;1.53;;;10.40;98.00;;;;;;6306923;22;20771;-69
2022/04/14 01:56:28;;;;;;;1.77;1.53;;;10.40;98.00;;;;;;6306733;22;20397;-69
2022/04/14 01:58:57;;;;;;;1.57;1.40;;;10.40;98.00;;;;;;6306929;22;20401;-69
2022/04/14 02:01:24;;;;;;;1.40;1.20;;;10.60;98.00;;;;;;6306635;22;20401;-69
2022/04/14 02:03:54;;;;;;;1.20;1.07;;;10.70;98.00;;;;;;6306572;22;20403;-69
2022/04/14 02:06:21;;;;;;;1.23;1.07;;;10.70;98.00;;;;;;6306995;22;20867;-69
2022/04/14 02:08:48;;;;;;;2.13;1.80;;;10.80;98.00;;;;;;6306605;22;20413;-69
2022/04/14 02:11:15;;;;;;;1.20;1.10;;;10.90;98.00;;;;;;6306675;22;20418;-69
2022/04/14 02:13:42;;;;;;;1.77;1.17;;;10.70;98.00;;;;;;6306624;22;20461;-69
2022/04/14 02:16:11;;;;;;;2.23;1.67;;;10.50;98.00;;;;;;6306359;22;20466;-69
2022/04/14 02:18:38;;;;;;;1.30;1.20;;;10.30;98.00;;;;;;6306648;22;20468;-69
2022/04/14 02:21:05;;;;;;;2.20;1.60;;;10.20;98.00;;;;;;6306525;22;20987;-69
2022/04/14 02:23:31;;;;;;;1.33;1.30;;;10.20;98.00;;;;;;6306834;22;20417;-69
2022/04/14 02:26:00;;;;;;;2.80;1.60;;;10.20;98.00;;;;;;6306255;22;20442;-69
2022/04/14 02:28:27;;;;;;;2.50;1.40;;;10.20;98.00;;;;;;6306174;22;20500;-70
2022/04/14 02:30:54;;;;;;;1.20;1.00;;;10.10;98.00;;;;;;6306308;22;20436;-69
2022/04/14 02:33:22;;;;;;;2.60;2.40;;;10.00;98.00;;;;;;6306134;22;21037;-69
2022/04/14 02:35:49;;;;;;;1.60;1.23;;;10.00;98.00;;;;;;6306168;22;20408;-69
2022/04/14 02:38:17;;;;;;;2.23;1.53;;;10.10;98.00;;;;;;6305988;22;20425;-69
2022/04/14 02:40:44;;;;;;;1.47;1.30;;;10.20;98.00;;;;;;6306366;22;20706;-70
2022/04/14 02:43:11;;;;;;;1.40;1.20;;;10.00;98.00;;;;;;6305766;22;20412;-69
2022/04/14 02:45:38;;;;;;;1.50;1.50;;;9.90;98.00;;;;;;6306546;22;20712;-69
2022/04/14 02:48:05;;;;;;;1.70;1.40;;;9.80;98.00;;;;;;6306431;22;20461;-69
2022/04/14 02:50:33;;;;;;;1.53;1.50;;;9.70;98.00;;;;;;6306019;22;20435;-70
2022/04/14 02:53:00;;;;;;;1.57;1.33;;;9.60;98.00;;;;;;6306043;22;20459;-70
2022/04/14 02:55:27;;;;;;;3.00;1.67;;;9.60;98.00;;;;;;6306141;22;20407;-70
2022/04/14 02:57:54;;;;;;;1.40;1.03;;;9.80;98.00;;;;;;6279108;22;20948;-70
2022/04/14 03:00:22;;;;;;;1.97;1.73;;;9.90;98.00;;;;;;6306610;22;20419;-70
2022/04/14 03:02:48;;;;;;;1.70;1.53;;;9.90;98.00;;;;;;6306311;22;20400;-69
2022/04/14 03:05:15;;;;;;;1.40;1.20;;;9.80;98.00;;;;;;6305381;22;21207;-70
2022/04/14 03:07:44;;;;;;;1.40;1.30;;;9.90;98.00;;;;;;6306708;22;20715;-69
2022/04/14 03:10:12;;;;;;;2.07;1.50;;;9.80;98.00;;;;;;6306666;22;20478;-69
2022/04/14 03:12:43;;;;;;;1.30;1.27;;;9.70;98.00;;;;;;6306364;22;20415;-70
2022/04/14 03:15:11;;;;;;;2.20;1.30;;;9.70;98.00;;;;;;6306306;22;20392;-70
2022/04/14 03:17:38;;;;;;;1.57;1.20;;;9.60;98.00;;;;;;6306203;22;20462;-69
2022/04/14 03:20:06;;;;;;;1.40;1.37;;;9.70;98.00;;;;;;6306072;22;20875;-69
2022/04/14 03:22:34;;;;;;;1.60;1.50;;;9.50;98.00;;;;;;6305934;22;20515;-69
2022/04/14 03:25:04;;;;;;;1.40;1.40;;;9.60;98.00;;;;;;6306015;22;20967;-69
2022/04/14 03:27:31;;;;;;;2.13;1.80;;;9.80;98.00;;;;;;6306055;22;20418;-69
2022/04/14 03:29:58;;;;;;;1.40;1.13;;;9.70;98.00;;;;;;6306115;22;20556;-70
2022/04/14 03:32:25;;;;;;;4.13;1.80;;;9.50;98.00;;;;;;6308170;22;20412;-69
2022/04/14 03:34:52;;;;;;;3.33;1.53;;;9.40;98.00;;;;;;6308315;22;20415;-70
2022/04/14 03:37:19;;;;;;;3.30;2.20;;;9.20;98.00;;;;;;6308040;22;20410;-69
2022/04/14 03:39:46;;;;;;;2.60;1.50;;;9.20;98.00;;;;;;6307129;22;21076;-70
2022/04/14 03:42:14;;;;;;;1.20;1.20;;;9.20;98.00;;;;;;6307791;22;20460;-70
2022/04/14 03:44:41;;;;;;;1.30;1.10;;;9.20;98.00;;;;;;6307364;22;20469;-70
2022/04/14 03:47:09;;;;;;;1.43;1.40;;;9.30;98.00;;;;;;6308283;22;20443;-70
2022/04/14 03:49:36;;;;;;;1.63;1.30;;;9.30;98.00;;;;;;6308004;22;20461;-70
2022/04/14 03:52:03;;;;;;;1.20;1.10;;;9.30;98.00;;;;;;6308026;22;20404;-70
2022/04/14 03:54:30;;;;;;;1.40;1.40;;;9.40;98.00;;;;;;6307672;22;20455;-70
2022/04/14 03:56:57;;;;;;;1.20;1.10;;;9.40;98.00;;;;;;6308281;22;20407;-70
2022/04/14 03:59:26;;;;;;;1.87;1.60;;;9.40;98.00;;;;;;6307454;22;20446;-69
2022/04/14 04:01:52;;;;;;;1.60;1.47;;;9.40;98.00;;;;;;6308483;22;20396;-70
2022/04/14 04:04:19;;;;;;;1.83;1.53;;;9.20;98.00;;;;;;6307929;22;20408;-70
2022/04/14 04:06:46;;;;;;;1.20;1.10;;;9.10;98.00;;;;;;6307968;22;20414;-70
2022/04/14 04:09:16;;;;;;;1.83;1.27;;;9.00;98.00;;;;;;6307663;22;20469;-69
2022/04/14 04:11:43;;;;;;;1.30;1.10;;;8.90;98.00;;;;;;6307927;22;20489;-70
2022/04/14 04:14:10;;;;;;;1.30;1.20;;;9.00;98.00;;;;;;6307771;22;20672;-70
2022/04/14 04:16:38;;;;;;;1.60;1.30;;;8.90;98.00;;;;;;6307822;22;20422;-70
2022/04/14 04:19:06;;;;;;;1.80;1.33;;;8.80;98.00;;;;;;6307807;22;20460;-70
2022/04/14 04:21:32;;;;;;;1.20;1.10;;;9.00;98.00;;;;;;6280421;22;20396;-70
2022/04/14 04:23:59;;;;;;;1.20;1.10;;;9.20;98.00;;;;;;6307662;22;20417;-69
2022/04/14 04:26:26;;;;;;;1.30;1.20;;;9.10;98.00;;;;;;6307560;22;20403;-69
2022/04/14 04:28:53;;;;;;;1.73;1.50;;;9.00;98.00;;;;;;6307746;22;20409;-70
2022/04/14 04:31:20;;;;;;;1.20;1.17;;;8.90;98.00;;;;;;6306542;22;21115;-69
2022/04/14 04:33:51;;;;;;;2.23;1.93;;;8.90;98.00;;;;;;6307666;22;20416;-69
2022/04/14 04:36:18;;;;;;;2.50;1.83;;;8.90;98.00;;;;;;6307899;22;20403;-69
2022/04/14 04:38:45;;;;;;;1.50;1.40;;;8.80;98.00;;;;;;6307726;22;20414;-69
2022/04/14 04:41:11;;;;;;;1.20;1.00;;;8.80;98.00;;;;;;6307521;22;20439;-69
2022/04/14 04:43:38;;;;;;;1.20;0.90;;;8.80;98.00;;;;;;6307095;22;20420;-69
2022/04/14 04:46:07;;;;;;;1.73;1.30;;;8.90;98.00;;;;;;6307925;22;20459;-70
2022/04/14 04:48:34;;;;;;;1.50;1.33;;;9.10;98.00;;;;;;6280071;22;20415;-70
2022/04/14 04:51:02;;;;;;;1.20;1.10;;;9.20;98.00;;;;;;6307646;22;20436;-70
2022/04/14 04:53:29;;;;;;;2.43;1.60;;;9.10;98.00;;;;;;6306965;22;20928;-69
2022/04/14 04:55:56;;;;;;;1.20;1.10;;;9.20;98.00;;;;;;6307943;22;20827;-69
2022/04/14 04:58:24;;;;;;;1.30;1.20;;;9.10;98.00;;;;;;6307646;22;20423;-69
2022/04/14 05:00:53;;;;;;;1.43;1.40;;;9.00;98.00;;;;;;6307513;22;20429;-70
2022/04/14 05:03:21;;;;;;;1.20;1.10;;;8.80;98.00;;;;;;6306893;22;20874;-69
2022/04/14 05:05:48;;;;;;;1.30;1.10;;;8.70;98.00;;;;;;6307037;22;20433;-70
2022/04/14 05:08:16;;;;;;;1.30;1.10;;;8.70;98.00;;;;;;6307478;22;20412;-69
2022/04/14 05:10:43;;;;;;;1.40;1.40;;;8.70;98.00;;;;;;6279737;22;20471;-69
2022/04/14 05:13:11;;;;;;;1.60;1.20;;;8.90;98.00;;;;;;6307393;22;20440;-69
2022/04/14 05:15:37;;;;;;;2.07;1.40;;;8.90;98.00;;;;;;6307227;22;20418;-69
2022/04/14 05:18:05;;;;;;;2.07;1.70;;;9.10;98.00;;;;;;6306991;22;20403;-69
2022/04/14 05:20:32;;;;;;;1.37;1.20;;;9.10;98.00;;;;;;6307140;22;20443;-70
2022/04/14 05:23:00;;;;;;;1.20;1.00;;;9.10;98.00;;;;;;6280399;22;20418;-69
2022/04/14 05:25:28;;;;;;;1.40;1.37;;;9.10;98.00;;;;;;6307231;22;20426;-69
2022/04/14 05:27:55;;;;;;;1.20;1.20;;;9.30;98.00;;;;;;6307278;22;20403;-69
2022/04/14 05:30:22;;;;;;;1.30;1.23;;;9.50;98.00;;;;;;6307149;22;20447;-69
2022/04/14 05:32:49;;;;;;;1.80;1.57;;;9.60;98.00;;;;;;6306954;22;20939;-69
2022/04/14 05:35:16;;;;;;;1.27;1.27;;;9.60;98.00;;;;;;6307250;22;20447;-69
2022/04/14 05:37:43;;;;;;;2.07;1.30;;;9.70;98.00;;;;;;6306794;22;20416;-69
2022/04/14 05:40:11;;;;;;;1.70;1.20;;;9.70;98.00;;;;;;6306911;22;20413;-69
2022/04/14 05:42:42;;;;;;;1.83;1.40;;;9.70;98.00;;;;;;6307042;22;20770;-69
2022/04/14 05:45:10;;;;;;;1.60;1.30;;;9.70;98.00;;;;;;6306410;22;20420;-67
2022/04/14 05:47:38;;;;;;;1.20;1.20;;;9.50;98.00;;;;;;6306693;22;20730;-67
2022/04/14 05:50:06;;;;;;;1.80;1.10;;;9.40;98.00;;;;;;6306732;22;20418;-67
2022/04/14 05:52:33;;;;;;;1.50;1.50;;;9.40;98.00;;;;;;6280036;22;20410;-67
2022/04/14 05:55:01;;;;;;;3.23;1.80;;;9.50;98.00;;;;;;6306499;22;20412;-67
2022/04/14 05:57:28;;;;;;;1.33;1.23;;;9.50;98.00;;;;;;6306597;22;20455;-67
2022/04/14 05:59:57;;;;;;;1.77;1.53;;;9.50;98.00;;;;;;6306748;22;20396;-67
2022/04/14 06:02:26;;;;;;;2.40;1.50;;;9.50;98.00;;;;;;6306447;22;20450;-66
2022/04/14 06:04:53;;;;;;;1.30;1.20;;;9.60;98.00;;;;;;6306952;22;20423;-66
2022/04/14 06:07:20;;;;;;;2.37;1.70;;;9.80;98.00;;;;;;6306738;22;20429;-66
2022/04/14 06:09:47;;;;;;;1.33;1.30;;;10.00;98.00;;;;;;6306227;22;20948;-66
2022/04/14 06:12:14;;;;;;;1.83;1.83;;;10.20;98.00;;;;;;6306758;22;20425;-66
2022/04/14 06:14:42;;;;;;;1.63;1.40;;;10.30;98.00;;;;;;6306329;22;21091;-66
2022/04/14 06:17:10;;;;;;;1.40;1.27;;;10.40;98.00;;;;;;6253944;22;20480;-66
2022/04/14 06:19:39;;;;;;;1.70;1.40;;;10.50;98.00;;;;;;6305983;22;20431;-66
2022/04/14 06:22:06;;;;;;;1.67;1.57;;;10.60;98.00;;;;;;6304582;22;20497;-66
2022/04/14 06:24:34;;;;;;;2.80;1.80;;;10.80;98.00;;;;;;6305470;22;20393;-66
2022/04/14 06:27:01;;;;;;;3.53;1.70;;;10.90;98.00;;;;;;6279618;22;20493;-67
2022/04/14 06:29:28;;;;;;;1.30;1.10;;;11.10;98.00;;;;;;6306832;22;20536;-66
2022/04/14 06:31:55;;;;;;;1.50;1.50;;;11.10;98.00;;;;;;6306859;22;20488;-66
2022/04/14 06:34:23;;;;;;;1.60;1.30;;;11.30;98.00;;;;;;6306432;22;20434;-66
2022/04/14 06:36:50;;;;;;;2.27;2.00;;;11.30;98.00;;;;;;6306945;22;20429;-66
2022/04/14 06:39:17;;;;;;;1.60;1.50;;;11.40;98.00;;;;;;6306435;22;20432;-66
2022/04/14 06:41:44;;;;;;;4.03;1.60;;;11.40;98.00;;;;;;6306718;22;20424;-66
2022/04/14 06:44:11;;;;;;;1.70;1.50;;;11.40;98.00;;;;;;6305821;22;20460;-66
2022/04/14 06:46:39;;;;;;;1.70;1.57;;;11.50;98.00;;;;;;6306564;22;20418;-67
2022/04/14 06:49:06;;;;;;;3.37;1.70;;;11.70;98.00;;;;;;6305857;22;20498;-66
2022/04/14 06:51:35;;;;;;;2.47;2.17;;;11.80;98.00;;;;;;6306350;22;20441;-67
2022/04/14 06:54:01;;;;;;;2.47;1.70;;;11.80;98.00;;;;;;6306144;22;20415;-67
2022/04/14 06:56:29;;;;;;;2.90;1.63;;;11.90;98.00;;;;;;6306007;22;20410;-67
2022/04/14 06:58:56;;;;;;;2.07;1.53;;;11.90;98.00;;;;;;6253239;22;20418;-66
2022/04/14 07:01:24;;;;;;;2.30;1.80;;;12.20;98.00;;;;;;6306402;22;20444;-67
2022/04/14 07:03:52;;;;;;;3.70;1.50;;;12.30;98.00;;;;;;6305831;22;20416;-67
2022/04/14 07:06:19;;;;;;;1.60;1.50;;;12.40;98.00;;;;;;6305848;22;20429;-67
2022/04/14 07:08:47;;;;;;;2.13;1.63;;;12.50;98.00;;;;;;6305323;22;20392;-67
2022/04/14 07:11:14;;;;;;;2.30;2.10;;;12.70;98.00;;;;;;6305958;22;20451;-67
2022/04/14 07:13:41;;;;;;;5.00;3.30;;;12.80;98.00;;;;;;6306200;22;20435;-67
2022/04/14 07:16:08;;;;;;;1.93;1.80;;;12.90;98.00;;;;;;6306033;22;20866;-66
2022/04/14 07:18:35;;;;;;;3.83;2.13;;;13.10;98.00;;;;;;6305862;22;20403;-66
2022/04/14 07:21:05;;;;;;;3.00;2.27;;;13.20;98.00;;;;;;6304636;22;20421;-67
2022/04/14 07:23:32;;;;;;;4.53;2.17;;;13.20;98.00;;;;;;6304207;22;20400;-66
2022/04/14 07:26:01;;;;;;;3.53;2.67;;;13.40;98.00;;;;;;6303928;22;20431;-66
2022/04/14 07:28:28;;;;;;;2.10;1.93;;;13.60;98.00;;;;;;6304976;22;20398;-66
2022/04/14 07:30:55;;;;;;;3.93;2.10;;;13.70;98.00;;;;;;6306223;22;20934;-66
2022/04/14 07:33:22;;;;;;;3.50;2.67;;;13.90;98.00;;;;;;6306171;22;20449;-66
2022/04/14 07:35:52;;;;;;;4.13;1.97;;;14.00;98.00;;;;;;6306101;22;20420;-66
2022/04/14 07:38:19;;;;;;;4.50;3.00;;;14.10;98.00;;;;;;6306311;22;20752;-66
2022/04/14 07:40:46;;;;;;;4.60;3.63;;;14.20;98.00;;;;;;6305796;22;20436;-66
2022/04/14 07:43:15;;;;;;;2.53;2.00;;;14.30;98.00;;;;;;6288559;22;20467;-66
2022/04/14 07:45:45;;;;;;;6.67;3.43;;;14.40;98.00;;;;;;6246732;22;20411;-66
2022/04/14 07:48:13;;;;;;;2.97;2.20;;;14.50;98.00;;;;;;6274339;22;20489;-66
2022/04/14 07:50:40;;;;;;;3.33;2.43;;;14.60;98.00;;;;;;6273895;22;20416;-66
2022/04/14 07:53:08;;;;;;;4.13;2.57;;;14.70;98.00;;;;;;6274120;22;20415;-66
2022/04/14 07:55:36;;;;;;;4.70;3.10;;;14.90;98.00;;;;;;6274007;22;20418;-66
2022/04/14 07:58:07;;;;;;;4.77;2.67;;;15.00;98.00;;;;;;6247471;22;20468;-66
2022/04/14 08:00:36;;;;;;;6.47;3.40;;;15.10;98.00;;;;;;6274089;22;20955;-66
2022/04/14 08:03:05;;;;;;;3.70;2.70;;;15.10;98.00;;;;;;6273816;22;20416;-66
2022/04/14 08:05:34;;;;;;;4.27;2.93;;;15.30;98.00;;;;;;6273884;22;20416;-66
2022/04/14 08:08:02;;;;;;;5.33;3.27;;;15.40;98.00;;;;;;6274949;22;20457;-66
2022/04/14 08:10:30;;;;;;;2.80;2.43;;;15.50;98.00;;;;;;6275407;22;20484;-66
2022/04/14 08:12:57;;;;;;;3.67;2.40;;;15.70;98.00;;;;;;6275175;22;20408;-68
2022/04/14 08:15:24;;;;;;;4.70;2.70;;;15.80;98.00;;;;;;6275271;22;20446;-68
2022/04/14 08:17:53;;;;;;;3.50;2.70;;;16.00;98.00;;;;;;6274856;22;21052;-68
2022/04/14 08:20:20;;;;;;;3.43;2.30;;;16.10;98.00;;;;;;6277227;22;20450;-68
2022/04/14 08:22:49;;;;;;;5.57;4.40;;;16.10;98.00;;;;;;6277099;22;20400;-68
2022/04/14 08:25:19;;;;;;;5.17;3.07;;;16.30;98.00;;;;;;6277074;22;20895;-66
2022/04/14 08:27:47;;;;;;;4.93;3.37;;;16.40;98.00;;;;;;6277071;22;20471;-66
2022/04/14 08:30:15;;;;;;;2.60;2.40;;;16.40;98.00;;;;;;6276411;22;20396;-67
2022/04/14 08:32:43;;;;;;;4.43;3.13;;;16.50;98.00;;;;;;6276212;22;20467;-69
2022/04/14 08:35:13;;;;;;;4.60;2.50;;;16.60;98.00;;;;;;6276703;22;20401;-70
2022/04/14 08:37:40;;;;;;;4.27;2.87;;;16.70;98.00;;;;;;6276693;22;20393;-69
2022/04/14 08:40:10;;;;;;;4.07;2.77;;;16.70;98.00;;;;;;6276532;22;20466;-70
2022/04/14 08:42:39;;;;;;;4.27;2.80;;;16.60;98.00;;;;;;6276425;22;20424;-70
2022/04/14 08:45:08;;;;;;;6.27;3.07;;;16.70;98.00;;;;;;6275259;22;20428;-69
2022/04/14 08:47:37;;;;;;;16.10;3.73;;;16.80;98.00;;;;;;6276782;22;20401;-69
2022/04/14 08:50:05;;;;;;;17.33;2.87;;;16.70;98.00;;;;;;6276645;22;20411;-70
2022/04/14 08:52:36;;;;;;;4.57;3.20;;;16.90;98.00;;;;;;6276725;22;20510;-69
2022/04/14 08:55:04;;;;;;;7.13;4.13;;;17.00;98.00;;;;;;6276275;22;20425;-67
2022/04/14 08:57:32;;;;;;;3.63;2.53;;;17.10;98.00;;;;;;6274300;22;20463;-66
2022/04/14 09:00:01;;;;;;;3.67;3.10;;;17.20;98.00;;;;;;6275602;22;20405;-67
2022/04/14 09:02:28;;;;;;;4.63;2.80;;;17.30;98.00;;;;;;6275448;22;20470;-67
2022/04/14 09:04:56;;;;;;;5.30;3.40;;;17.40;98.00;;;;;;6275545;22;20401;-66
2022/04/14 09:07:23;;;;;;;4.43;2.90;;;17.40;98.00;;;;;;6275062;22;20404;-66
2022/04/14 09:09:52;;;;;;;4.47;3.13;;;17.40;98.00;;;;;;6275713;22;20404;-66
2022/04/14 09:12:20;;;;;;;6.77;4.03;;;17.60;98.00;;;;;;6275057;22;20425;-66
2022/04/14 09:14:47;;;;;;;6.30;3.80;;;17.90;98.00;;;;;;6275310;22;20401;-66
2022/04/14 09:17:15;;;;;;;4.23;2.70;;;17.90;98.00;;;;;;6275470;22;20397;-66
2022/04/14 09:19:42;;;;;;;7.43;4.50;;;18.00;98.00;;;;;;6275480;22;20753;-66
2022/04/14 09:22:11;;;;;;;6.80;3.30;;;18.00;98.00;;;;;;6275207;22;20910;-66
2022/04/14 09:24:43;;;;;;;15.03;3.50;;;18.10;98.00;;;;;;6275174;22;20440;-66
2022/04/14 09:27:25;;;;;;;6.20;3.57;;;18.30;98.00;;;;;;6274716;22;20429;-66
2022/04/14 09:29:53;;;;;;;6.57;3.77;;;18.40;98.00;;;;;;6274709;22;20459;-66
2022/04/14 09:32:32;;;;;;;6.73;3.20;;;18.50;98.00;;;;;;6274809;22;20476;-67
2022/04/14 09:35:00;;;;;;;7.03;3.83;;;18.50;98.00;;;;;;6275177;22;20467;-67
2022/04/14 09:37:28;;;;;;;5.50;3.67;;;18.60;98.00;;;;;;6248268;22;20406;-66
2022/04/14 09:40:02;;;;;;;22.47;3.30;;;18.80;98.00;;;;;;6275115;22;20401;-66
2022/04/14 09:42:32;;;;;;;5.47;3.50;;;19.00;98.00;;;;;;6274755;22;20965;-66
2022/04/14 09:45:17;;;;;;;7.13;4.03;;;19.00;98.00;;;;;;6274699;22;20439;-66
2022/04/14 09:47:45;;;;;;;4.27;2.40;;;19.10;98.00;;;;;;6275153;22;20400;-66
2022/04/14 09:50:32;;;;;;;7.00;3.83;;;19.20;98.00;;;;;;6274235;22;20393;-67
2022/04/14 09:53:06;;;;;;;5.33;2.90;;;19.40;98.00;;;;;;6274807;22;20507;-67
2022/04/14 09:55:34;;;;;;;3.70;2.87;;;19.70;98.00;;;;;;6274219;22;20405;-66
2022/04/14 09:58:11;;;;;;;5.93;3.27;;;19.80;98.00;;;;;;6274577;22;20894;-66
2022/04/14 10:00:40;;;;;;;4.00;3.00;;;19.80;98.00;;;;;;6274959;22;20405;-67
2022/04/14 10:03:11;;;;;;;5.47;3.00;;;19.90;98.00;;;;;;6275114;22;20413;-66
2022/04/14 10:05:39;;;;;;;6.00;3.20;;;20.10;97.30;;;;;;6274754;22;20918;-67
2022/04/14 10:08:08;;;;;;;3.30;2.10;;;20.20;94.70;;;;;;6275242;22;20429;-67
2022/04/14 10:10:38;;;;;;;3.77;2.53;;;20.30;96.40;;;;;;6275040;22;20474;-66
2022/04/14 10:13:07;;;;;;;4.23;3.23;;;20.50;95.60;;;;;;6274875;22;20795;-67
2022/04/14 10:15:37;;;;;;;7.90;3.70;;;20.60;95.50;;;;;;6274614;22;20470;-66
2022/04/14 10:18:07;;;;;;;3.10;2.03;;;20.60;94.40;;;;;;6274635;22;20409;-67
2022/04/14 10:20:36;;;;;;;2.90;2.10;;;20.60;93.30;;;;;;6274605;22;20393;-66
2022/04/14 10:23:03;;;;;;;5.63;2.50;;;20.70;95.20;;;;;;6274821;22;20397;-67
2022/04/14 10:25:32;;;;;;;4.60;2.80;;;20.90;93.60;;;;;;6274523;22;20413;-67
2022/04/14 10:28:03;;;;;;;6.63;2.97;;;20.90;92.60;;;;;;6274310;22;20451;-67
2022/04/14 10:30:30;;;;;;;4.60;2.73;;;20.90;93.30;;;;;;6247801;22;20399;-66
2022/04/14 10:32:59;;;;;;;5.63;3.20;;;21.10;93.50;;;;;;6274237;22;20429;-66
2022/04/14 10:35:27;;;;;;;5.87;3.00;;;21.40;94.30;;;;;;6274411;22;20405;-66
2022/04/14 10:38:02;;;;;;;4.23;2.67;;;21.40;91.10;;;;;;6274347;22;20404;-66
2022/04/14 10:40:31;;;;;;;5.33;3.20;;;21.50;91.40;;;;;;6274581;22;20782;-67
2022/04/14 10:43:00;;;;;;;5.90;3.60;;;21.80;92.30;;;;;;6273759;22;20417;-67
2022/04/14 10:45:27;;;;;;;4.93;2.70;;;21.90;91.20;;;;;;6274433;22;20401;-66
2022/04/14 10:48:01;;;;;;;6.13;3.10;;;22.00;90.30;;;;;;6274663;22;20477;-67
2022/04/14 10:50:30;;;;;;;4.40;2.83;;;22.10;89.90;;;;;;6273697;22;20454;-66
2022/04/14 10:53:13;;;;;;;5.33;3.47;;;22.40;90.60;;;;;;6274256;22;20429;-66
2022/04/14 10:55:43;;;;;;;4.37;3.03;;;22.50;88.10;;;;;;6274211;22;20412;-66
2022/04/14 10:58:48;;;;;;;5.47;3.40;;;22.40;88.40;;;;;;6274147;22;20400;-66
2022/04/14 11:01:15;;;;;;;5.43;3.33;;;22.40;87.80;;;;;;6274545;22;20407;-66
2022/04/14 11:03:49;;;;;;;4.37;3.00;;;22.40;87.20;;;;;;6274682;22;20746;-66
2022/04/14 11:06:51;;;;;;;4.13;2.90;;;22.40;87.90;;;;;;6274161;22;20466;-66
2022/04/14 11:10:03;;;;;;;3.37;3.10;;;22.80;89.80;;;;;;6274283;22;20470;-67
2022/04/14 11:12:51;;;;;;;6.43;2.80;;;23.10;88.50;;;;;;6274122;22;20428;-67
2022/04/14 11:15:31;;;;;;;5.33;3.73;;;23.40;88.50;;;;;;6273663;22;21141;-66
2022/04/14 11:18:06;;;;;;;7.30;3.40;;;23.40;87.90;;;;;;6274362;22;20411;-66
2022/04/14 11:21:07;;;;;;;7.27;3.70;;;23.70;88.80;;;;;;6274282;22;20415;-67
2022/04/14 11:23:36;;;;;;;4.87;2.97;;;24.00;85.70;;;;;;6274258;22;20428;-67
2022/04/14 11:26:06;;;;;;;5.13;2.80;;;24.10;84.80;;;;;;6273892;22;20403;-66
2022/04/14 11:28:35;;;;;;;5.37;3.17;;;24.20;84.00;;;;;;6273864;22;20396;-66
2022/04/14 11:31:24;;;;;;;4.80;3.37;;;24.40;83.70;;;;;;6274163;22;20867;-66
2022/04/14 11:33:53;;;;;;;5.93;3.63;;;24.60;86.00;;;;;;6273383;22;20429;-66
2022/04/14 11:36:26;;;;;;;5.00;3.30;;;24.70;84.70;;;;;;6273810;22;20393;-67
2022/04/14 11:39:06;;;;;;;9.13;4.43;;;24.60;83.60;;;;;;6274598;22;20397;-67
2022/04/14 11:41:39;;;;;;;7.10;4.10;;;24.60;83.00;;;;;;6273543;22;20397;-66
2022/04/14 11:44:07;;;;;;;6.30;3.37;;;24.50;82.50;;;;;;6273606;22;20474;-66
2022/04/14 11:46:37;;;;;;;5.90;3.20;;;24.20;84.30;;;;;;6274689;22;20481;-66
2022/04/14 11:49:04;;;;;;;4.77;3.10;;;24.40;83.90;;;;;;6274262;22;20790;-67
2022/04/14 11:51:33;;;;;;;5.67;3.60;;;24.70;83.10;;;;;;6274297;22;20392;-66
2022/04/14 11:54:00;;;;;;;5.43;3.10;;;24.90;82.20;;;;;;6275999;22;20467;-66
2022/04/14 11:56:27;;;;;;;5.93;3.53;;;25.10;82.60;;;;;;6275532;22;20413;-66
2022/04/14 11:58:55;;;;;;;10.50;4.07;;;25.20;83.00;;;;;;6275894;22;20401;-66
2022/04/14 12:01:22;;;;;;;5.40;3.10;;;25.20;80.60;;;;;;6275760;22;20419;-66
2022/04/14 12:03:49;;;;;;;5.60;3.47;;;25.20;81.80;;;;;;6275674;22;20408;-66
2022/04/14 12:06:18;;;;;;;6.37;3.40;;;25.40;80.90;;;;;;6275894;22;20786;-66
2022/04/14 12:08:59;;;;;;;5.93;3.37;;;25.40;81.30;;;;;;6275953;22;20400;-66
2022/04/14 12:11:30;;;;;;;3.80;2.73;;;25.40;79.80;;;;;;6275822;22;20397;-66
2022/04/14 12:13:58;;;;;;;4.57;3.00;;;25.60;78.50;;;;;;6275419;22;20455;-66
2022/04/14 12:16:33;;;;;;;3.17;2.30;;;25.90;79.00;;;;;;6275194;22;20504;-66
2022/04/14 12:19:02;;;;;;;4.70;2.80;;;26.00;75.80;;;;;;6274798;22;20408;-66
2022/04/14 12:21:29;;;;;;;4.27;2.40;;;26.20;76.90;;;;;;6275310;22;20727;-67
2022/04/14 12:24:00;;;;;;;4.30;2.80;;;26.40;77.70;;;;;;6274722;22;20408;-66
2022/04/14 12:26:29;;;;;;;8.53;3.00;;;26.60;76.20;;;;;;6276087;22;20412;-66
2022/04/14 12:28:56;;;;;;;5.33;3.77;;;26.90;75.30;;;;;;6275855;22;20393;-66
2022/04/14 12:31:28;;;;;;;4.37;2.80;;;27.10;75.10;;;;;;6275919;22;20491;-66
2022/04/14 12:33:57;;;;;;;4.97;2.83;;;26.90;74.00;;;;;;6276169;22;20433;-66
2022/04/14 12:36:34;;;;;;;5.53;2.47;;;26.90;75.20;;;;;;6276884;22;20447;-66
2022/04/14 12:39:06;;;;;;;6.03;3.37;;;26.90;76.00;;;;;;6276837;22;20393;-66
2022/04/14 12:41:40;;;;;;;5.40;3.17;;;27.10;74.00;;;;;;6286862;22;20511;-66
2022/04/14 12:44:07;;;;;;;5.00;3.10;;;27.00;73.80;;;;;;6275978;22;20486;-66
2022/04/14 12:46:39;;;;;;;4.30;3.03;;;26.90;76.00;;;;;;6277002;22;20409;-67
2022/04/14 12:49:08;;;;;;;4.90;3.10;;;27.00;76.40;;;;;;6286920;22;20420;-67
2022/04/14 12:51:38;;;;;;;6.03;3.20;;;26.90;74.10;;;;;;6276773;22;20795;-67
2022/04/14 12:54:07;;;;;;;5.90;2.80;;;27.00;77.40;;;;;;6276497;22;20830;-66
2022/04/14 12:56:36;;;;;;;5.20;3.10;;;27.20;75.40;;;;;;6276206;22;20401;-66
2022/04/14 12:59:13;;;;;;;3.30;2.33;;;27.10;75.80;;;;;;6249929;22;20408;-66